Time;durP1;ratioP1;P1;durP2;ratioP2;P2;SDS_P1;SDS_P2;PMS_P1;PMS_P2;Temp;Humidity;BMP_temperature;BMP_pressure;BME280_temperature;BME280_humidity;BME280_pressure;Samples;Min_cycle;Max_cycle;Signal;HPM_P1;HPM_P2
2022/01/06 00:01:49;;;;;;;10.82;1.90;;;4.70;99.90;;;;;;5063149;28;20040;-77
2022/01/06 00:04:15;;;;;;;9.88;1.98;;;4.70;99.90;;;;;;5045999;28;20056;-78
2022/01/06 00:06:42;;;;;;;9.93;2.47;;;4.70;99.90;;;;;;5045333;28;20056;-77
2022/01/06 00:09:11;;;;;;;12.75;1.95;;;4.70;99.90;;;;;;5063138;28;20048;-77
2022/01/06 00:11:37;;;;;;;11.50;2.25;;;4.70;99.90;;;;;;5045919;28;20130;-77
2022/01/06 00:24:47;;;;;;;16.45;3.60;;;4.70;99.90;;;;;;5065939;28;20048;-77
2022/01/06 00:27:13;;;;;;;21.00;3.85;;;4.70;99.90;;;;;;5049563;28;20044;-77
2022/01/06 00:29:39;;;;;;;19.00;3.90;;;4.70;99.90;;;;;;5049730;28;20058;-77
2022/01/06 00:32:05;;;;;;;20.80;3.55;;;5.70;99.90;;;;;;5064086;28;20045;-77
2022/01/06 00:34:30;;;;;;;23.95;3.63;;;4.70;99.90;;;;;;5066014;28;20126;-76
2022/01/06 00:36:56;;;;;;;22.45;4.40;;;4.90;99.90;;;;;;5065646;28;20138;-77
2022/01/06 00:39:27;;;;;;;22.08;4.05;;;5.10;99.90;;;;;;5049305;28;20032;-77
2022/01/06 00:41:56;;;;;;;20.08;3.63;;;4.80;99.90;;;;;;5046806;28;20135;-77
2022/01/06 00:44:23;;;;;;;17.35;3.28;;;5.10;99.90;;;;;;5046842;28;20483;-77
2022/01/06 00:46:49;;;;;;;19.10;3.92;;;5.20;99.90;;;;;;5050380;28;20094;-78
2022/01/06 00:49:17;;;;;;;19.40;3.60;;;4.90;99.90;;;;;;5050611;28;20047;-78
2022/01/06 00:51:43;;;;;;;24.15;4.20;;;4.90;99.90;;;;;;5032614;28;20143;-78
2022/01/06 00:54:09;;;;;;;18.80;3.70;;;5.00;99.90;;;;;;5049399;28;20066;-78
2022/01/06 00:56:35;;;;;;;13.48;3.17;;;5.00;99.90;;;;;;5063724;28;20085;-78
2022/01/06 00:59:01;;;;;;;22.50;3.45;;;5.00;99.90;;;;;;5051057;28;20566;-78
2022/01/06 01:01:27;;;;;;;20.02;3.65;;;5.00;99.90;;;;;;5048057;28;20058;-78
2022/01/06 01:03:53;;;;;;;17.17;3.35;;;5.10;99.90;;;;;;5047303;28;20048;-78
2022/01/06 01:06:19;;;;;;;20.17;3.72;;;5.70;99.90;;;;;;5049094;28;20481;-80
2022/01/06 01:08:45;;;;;;;23.17;3.70;;;4.50;99.90;;;;;;5048503;28;20050;-78
2022/01/06 01:11:11;;;;;;;18.50;3.75;;;6.50;99.90;;;;;;5033795;28;20036;-78
2022/01/06 01:16:28;;;;;;;21.30;4.05;;;5.10;99.90;;;;;;5050723;28;20051;-79
2022/01/06 01:18:56;;;;;;;16.08;3.53;;;5.60;99.90;;;;;;5082918;28;20060;-78
2022/01/06 01:21:26;;;;;;;19.48;3.67;;;5.10;99.90;;;;;;5032384;28;20044;-79
2022/01/06 01:23:54;;;;;;;15.88;3.20;;;5.10;99.90;;;;;;5048061;28;20051;-77
2022/01/06 01:26:21;;;;;;;21.00;3.20;;;5.00;99.90;;;;;;5067462;28;20043;-78
2022/01/06 01:28:47;;;;;;;18.95;2.90;;;5.40;99.90;;;;;;5037536;28;20052;-78
2022/01/06 01:33:44;;;;;;;21.30;3.55;;;6.00;99.90;;;;;;5068785;28;20083;-77
2022/01/06 01:36:11;;;;;;;20.65;3.03;;;5.00;99.90;;;;;;5036793;28;20048;-77
2022/01/06 01:38:37;;;;;;;14.57;3.20;;;5.00;99.90;;;;;;5052839;28;20058;-78
2022/01/06 01:41:07;;;;;;;13.60;2.55;;;5.00;99.90;;;;;;5052507;28;20840;-78
2022/01/06 01:43:34;;;;;;;12.73;2.58;;;5.00;99.90;;;;;;5052498;28;20052;-78
2022/01/06 01:46:09;;;;;;;16.50;3.08;;;5.00;99.90;;;;;;5053315;28;20145;-78
2022/01/06 01:48:38;;;;;;;13.00;3.03;;;5.40;99.90;;;;;;5069151;28;20459;-78
2022/01/06 01:51:05;;;;;;;13.00;3.33;;;5.00;99.90;;;;;;5068839;28;20044;-78
2022/01/06 01:53:30;;;;;;;13.18;3.78;;;5.00;99.90;;;;;;5066416;28;20130;-78
2022/01/06 01:55:57;;;;;;;15.80;3.55;;;5.00;99.90;;;;;;5068933;28;20134;-78
2022/01/06 01:58:22;;;;;;;23.52;3.63;;;5.00;99.90;;;;;;5053070;28;20063;-78
2022/01/06 02:00:48;;;;;;;19.33;3.08;;;5.20;99.90;;;;;;5068320;28;20043;-78
2022/01/06 02:03:14;;;;;;;22.58;3.70;;;5.00;99.90;;;;;;5066864;28;20043;-78
2022/01/06 02:05:40;;;;;;;21.73;3.45;;;5.00;99.90;;;;;;5065957;28;20501;-78
2022/01/06 02:08:06;;;;;;;19.00;3.53;;;6.10;99.90;;;;;;5068059;28;20083;-78
2022/01/06 02:10:32;;;;;;;20.58;3.42;;;4.90;99.90;;;;;;5052994;28;20378;-78
2022/01/06 02:13:00;;;;;;;19.10;3.50;;;4.90;99.90;;;;;;5066299;28;20244;-77
2022/01/06 02:15:27;;;;;;;22.05;3.15;;;4.80;99.90;;;;;;5066897;28;20079;-79
2022/01/06 02:17:53;;;;;;;19.40;2.90;;;4.80;99.90;;;;;;5052178;28;20048;-78
2022/01/06 02:20:21;;;;;;;17.23;3.50;;;4.80;99.90;;;;;;5035466;28;20180;-77
2022/01/06 02:22:48;;;;;;;15.70;2.95;;;4.80;99.90;;;;;;5051025;28;20588;-78
2022/01/06 02:25:19;;;;;;;12.88;3.35;;;4.70;99.90;;;;;;5050116;28;20044;-77
2022/01/06 02:27:49;;;;;;;15.55;3.05;;;4.70;99.90;;;;;;5068873;28;20036;-78
2022/01/06 02:30:15;;;;;;;15.25;2.65;;;4.60;99.90;;;;;;5068129;28;20801;-77
2022/01/06 02:32:41;;;;;;;12.18;2.78;;;4.60;99.90;;;;;;5048400;28;20049;-78
2022/01/06 02:35:16;;;;;;;16.52;2.75;;;4.60;99.90;;;;;;5067751;28;20666;-78
2022/01/06 02:37:42;;;;;;;13.95;2.80;;;4.90;99.90;;;;;;5048708;28;20044;-78
2022/01/06 02:40:14;;;;;;;17.55;3.40;;;4.70;99.90;;;;;;5068524;28;20047;-78
2022/01/06 02:42:49;;;;;;;20.58;3.00;;;4.70;99.90;;;;;;5067078;28;20131;-78
2022/01/06 02:45:16;;;;;;;18.02;3.75;;;4.70;99.90;;;;;;5052236;28;20040;-78
2022/01/06 02:47:43;;;;;;;14.70;2.92;;;4.70;99.90;;;;;;5051784;28;20048;-78
2022/01/06 02:50:10;;;;;;;10.95;2.40;;;4.70;99.90;;;;;;5089563;28;20047;-77
2022/01/06 02:52:36;;;;;;;11.73;2.25;;;5.20;99.90;;;;;;5050511;28;20562;-78
2022/01/06 02:55:04;;;;;;;8.90;2.33;;;4.60;99.90;;;;;;5050709;28;20044;-78
2022/01/06 02:57:30;;;;;;;15.57;2.75;;;4.60;99.90;;;;;;5067843;28;20058;-78
2022/01/06 02:59:56;;;;;;;9.95;2.40;;;4.80;99.90;;;;;;5067503;28;20378;-78
2022/01/06 03:02:22;;;;;;;16.33;3.17;;;4.60;99.90;;;;;;5032589;28;20055;-77
2022/01/06 03:04:47;;;;;;;10.40;2.05;;;4.50;99.90;;;;;;5066712;28;20089;-77
2022/01/06 03:07:13;;;;;;;9.02;2.50;;;4.50;99.90;;;;;;5018707;28;20499;-77
2022/01/06 03:09:41;;;;;;;10.10;2.08;;;4.40;99.90;;;;;;5050123;28;20051;-77
2022/01/06 03:12:22;;;;;;;11.93;2.35;;;4.40;99.90;;;;;;5051743;28;20185;-77
2022/01/06 03:14:48;;;;;;;9.68;1.95;;;4.70;99.90;;;;;;5063029;28;20052;-77
2022/01/06 03:17:14;;;;;;;10.93;2.10;;;4.40;99.90;;;;;;5047025;28;20619;-77
2022/01/06 03:19:40;;;;;;;19.05;3.33;;;5.00;99.90;;;;;;5031354;28;20523;-78
2022/01/06 03:22:05;;;;;;;13.68;3.03;;;4.30;99.90;;;;;;5046382;28;20044;-77
2022/01/06 03:24:31;;;;;;;11.32;2.58;;;4.50;99.90;;;;;;5062068;28;20052;-78
2022/01/06 03:26:57;;;;;;;10.00;2.30;;;4.80;99.90;;;;;;5047525;28;20048;-77
2022/01/06 03:29:22;;;;;;;15.73;2.55;;;4.20;99.90;;;;;;5046025;28;20047;-77
2022/01/06 03:31:48;;;;;;;12.23;2.30;;;4.50;99.90;;;;;;5062674;28;20682;-77
2022/01/06 03:34:14;;;;;;;17.98;2.80;;;4.20;99.90;;;;;;5045845;28;20048;-77
2022/01/06 03:36:40;;;;;;;21.42;3.25;;;4.10;99.90;;;;;;5062529;28;20074;-77
2022/01/06 03:39:06;;;;;;;11.52;2.55;;;4.80;99.90;;;;;;5064671;28;20323;-76
2022/01/06 03:41:33;;;;;;;16.33;3.15;;;4.00;99.90;;;;;;5064099;28;20531;-77
2022/01/06 03:43:59;;;;;;;12.27;2.45;;;5.10;99.90;;;;;;5062016;28;20048;-77
2022/01/06 03:46:26;;;;;;;14.35;3.10;;;4.00;99.90;;;;;;5047452;28;20040;-77
2022/01/06 03:48:51;;;;;;;12.45;2.50;;;3.90;99.90;;;;;;5059279;28;20516;-77
2022/01/06 03:51:20;;;;;;;10.23;2.88;;;4.70;99.90;;;;;;5061550;28;20045;-77
2022/01/06 03:53:47;;;;;;;12.82;2.58;;;3.80;99.90;;;;;;5061723;28;20044;-77
2022/01/06 03:56:13;;;;;;;10.82;2.33;;;4.20;99.90;;;;;;5048147;28;20056;-77
2022/01/06 03:58:40;;;;;;;14.68;2.65;;;3.80;99.90;;;;;;5047379;28;20044;-77
2022/01/06 04:01:07;;;;;;;13.38;2.90;;;3.70;99.90;;;;;;5045795;28;20059;-77
2022/01/06 04:03:32;;;;;;;14.80;2.63;;;3.70;99.90;;;;;;5078289;28;20071;-77
2022/01/06 04:05:58;;;;;;;18.50;2.75;;;3.70;99.90;;;;;;5046702;28;20116;-77
2022/01/06 04:08:24;;;;;;;14.40;2.40;;;3.80;99.90;;;;;;5047738;28;20044;-77
2022/01/06 04:10:51;;;;;;;8.25;2.28;;;3.60;99.90;;;;;;5037859;28;20499;-76
2022/01/06 04:13:17;;;;;;;12.95;2.35;;;3.50;99.90;;;;;;5051725;28;20055;-77
2022/01/06 04:15:44;;;;;;;14.38;2.50;;;3.40;99.90;;;;;;5059668;28;20498;-77
2022/01/06 04:18:10;;;;;;;7.95;2.28;;;3.40;99.90;;;;;;5063237;28;20037;-77
2022/01/06 04:20:36;;;;;;;9.60;2.30;;;3.60;99.90;;;;;;5046910;28;20063;-78
2022/01/06 04:23:02;;;;;;;15.13;2.47;;;4.50;99.90;;;;;;5062019;28;20157;-77
2022/01/06 04:25:28;;;;;;;9.52;2.22;;;4.50;99.90;;;;;;5062915;28;20036;-76
2022/01/06 04:27:53;;;;;;;10.80;2.35;;;3.10;99.90;;;;;;5055032;28;20051;-77
2022/01/06 04:30:19;;;;;;;14.50;2.78;;;3.10;99.90;;;;;;5047376;28;20055;-76
2022/01/06 04:32:45;;;;;;;10.95;2.25;;;3.00;99.90;;;;;;5045341;28;20044;-77
2022/01/06 04:35:11;;;;;;;13.38;2.38;;;2.90;99.90;;;;;;5077317;28;20501;-77
2022/01/06 04:37:37;;;;;;;13.15;2.05;;;3.90;99.90;;;;;;5046571;28;20144;-77
2022/01/06 04:40:05;;;;;;;7.60;2.15;;;3.20;99.90;;;;;;5046240;28;20051;-77
2022/01/06 04:42:30;;;;;;;10.60;2.33;;;2.60;99.90;;;;;;5063472;28;20043;-76
2022/01/06 04:44:56;;;;;;;9.95;2.00;;;3.80;99.90;;;;;;5045371;28;20048;-76
2022/01/06 04:47:22;;;;;;;6.22;1.92;;;2.50;99.90;;;;;;5046850;28;20053;-77
2022/01/06 04:49:47;;;;;;;11.88;1.90;;;2.60;99.90;;;;;;5029249;28;20082;-76
2022/01/06 04:52:14;;;;;;;10.30;2.10;;;2.40;99.90;;;;;;5030206;28;20795;-76
2022/01/06 04:54:40;;;;;;;10.45;2.33;;;2.30;99.90;;;;;;5062536;28;20086;-77
2022/01/06 04:57:05;;;;;;;8.20;2.53;;;2.20;99.90;;;;;;5047376;28;20041;-76
2022/01/06 04:59:31;;;;;;;7.65;1.70;;;2.10;99.90;;;;;;5061897;28;20051;-76
2022/01/06 05:01:57;;;;;;;10.82;2.30;;;2.10;99.90;;;;;;5060284;28;20051;-77
2022/01/06 05:04:22;;;;;;;6.10;2.03;;;2.10;99.90;;;;;;5060222;28;20040;-77
2022/01/06 05:06:51;;;;;;;7.15;1.90;;;2.90;99.90;;;;;;5059816;28;20128;-76
2022/01/06 05:09:17;;;;;;;9.88;1.67;;;1.90;99.90;;;;;;5046225;28;20501;-76
2022/01/06 05:11:43;;;;;;;6.57;1.55;;;3.20;99.90;;;;;;5061597;28;20093;-77
2022/01/06 05:14:08;;;;;;;8.07;2.00;;;2.40;99.90;;;;;;5043634;28;20435;-76
2022/01/06 05:16:34;;;;;;;12.18;2.40;;;2.80;99.90;;;;;;5048122;28;20059;-76
2022/01/06 05:19:00;;;;;;;9.75;2.22;;;1.70;99.90;;;;;;5029818;28;20032;-76
2022/01/06 05:21:29;;;;;;;10.93;2.20;;;1.70;99.90;;;;;;5072110;28;20130;-77
2022/01/06 05:23:55;;;;;;;7.50;2.72;;;1.60;99.90;;;;;;5047210;28;20074;-77
2022/01/06 05:26:21;;;;;;;11.50;2.78;;;2.10;99.90;;;;;;5064439;28;20051;-76
2022/01/06 05:28:47;;;;;;;13.30;2.28;;;1.60;99.90;;;;;;5046887;28;20051;-76
2022/01/06 05:31:13;;;;;;;10.10;2.60;;;1.60;99.90;;;;;;5048628;28;20056;-77
2022/01/06 05:33:39;;;;;;;11.25;2.40;;;1.50;99.90;;;;;;5032039;28;20058;-77
2022/01/06 05:36:05;;;;;;;10.68;2.05;;;1.50;99.90;;;;;;5047083;28;20044;-77
2022/01/06 05:38:31;;;;;;;10.20;1.92;;;1.50;99.90;;;;;;5050646;28;20570;-76
2022/01/06 05:40:56;;;;;;;12.70;2.38;;;1.50;99.90;;;;;;5048615;28;20137;-76
2022/01/06 05:43:23;;;;;;;9.32;1.63;;;2.70;99.90;;;;;;5062829;28;20048;-76
2022/01/06 05:45:55;;;;;;;11.48;2.30;;;1.50;99.90;;;;;;5065030;28;20053;-76
2022/01/06 05:48:21;;;;;;;6.30;1.80;;;1.50;99.90;;;;;;5064836;28;20044;-77
2022/01/06 05:50:48;;;;;;;12.98;2.60;;;1.50;99.90;;;;;;5064869;28;20044;-76
2022/01/06 05:53:18;;;;;;;8.27;2.33;;;1.40;99.90;;;;;;5063993;28;20051;-76
2022/01/06 05:55:44;;;;;;;8.30;2.00;;;1.40;99.90;;;;;;5048117;28;20118;-77
2022/01/06 05:58:10;;;;;;;9.38;2.65;;;2.70;99.90;;;;;;5064028;28;20105;-77
2022/01/06 06:00:36;;;;;;;8.23;1.80;;;1.90;99.90;;;;;;5064738;28;20083;-79
2022/01/06 06:03:02;;;;;;;8.68;1.90;;;1.40;99.90;;;;;;5069699;28;20048;-79
2022/01/06 06:05:28;;;;;;;10.70;2.10;;;2.90;99.90;;;;;;5080647;28;20043;-79
2022/01/06 06:07:54;;;;;;;6.70;2.10;;;1.40;99.90;;;;;;5047627;28;20048;-77
2022/01/06 06:10:19;;;;;;;9.48;2.30;;;2.90;99.90;;;;;;5065771;28;20138;-77
2022/01/06 06:12:45;;;;;;;8.38;2.70;;;1.90;99.90;;;;;;5059873;28;20043;-80
2022/01/06 06:15:11;;;;;;;12.40;3.08;;;1.40;99.90;;;;;;5066778;28;20098;-77
2022/01/06 06:17:37;;;;;;;11.52;2.45;;;2.60;99.90;;;;;;5041914;28;20048;-76
2022/01/06 06:20:03;;;;;;;7.55;2.17;;;1.40;99.90;;;;;;5051893;28;20382;-77
2022/01/06 06:22:29;;;;;;;7.60;2.13;;;1.40;99.90;;;;;;5068953;28;20040;-76
2022/01/06 06:24:55;;;;;;;12.25;2.53;;;1.30;99.90;;;;;;5051738;28;20098;-77
2022/01/06 06:27:21;;;;;;;8.30;1.80;;;1.30;99.90;;;;;;5052179;28;20079;-77
2022/01/06 06:29:47;;;;;;;11.43;2.38;;;3.00;99.90;;;;;;5050766;28;20053;-77
2022/01/06 06:32:13;;;;;;;11.48;2.40;;;1.30;99.90;;;;;;5066985;28;21796;-77
2022/01/06 06:34:38;;;;;;;11.02;2.45;;;1.30;99.90;;;;;;5052763;28;20122;-77
2022/01/06 06:37:04;;;;;;;11.38;2.22;;;1.30;99.90;;;;;;5051472;28;20044;-77
2022/01/06 06:39:30;;;;;;;8.60;2.05;;;2.80;99.90;;;;;;5069372;28;20051;-77
2022/01/06 06:41:55;;;;;;;8.88;2.28;;;1.30;99.90;;;;;;5032280;28;20052;-77
2022/01/06 06:44:21;;;;;;;8.23;2.30;;;2.50;99.90;;;;;;5068099;28;20079;-77
2022/01/06 06:46:47;;;;;;;10.45;2.10;;;1.20;99.90;;;;;;5050743;28;20063;-77
2022/01/06 06:49:13;;;;;;;8.80;2.15;;;1.20;99.90;;;;;;5064182;28;20068;-77
2022/01/06 06:51:38;;;;;;;12.68;2.47;;;1.10;99.90;;;;;;5041604;28;20173;-77
2022/01/06 06:54:04;;;;;;;10.82;2.22;;;1.10;99.90;;;;;;5064552;28;20040;-77
2022/01/06 06:56:30;;;;;;;6.35;1.98;;;1.10;99.90;;;;;;5051509;28;20661;-77
2022/01/06 06:58:56;;;;;;;7.05;2.20;;;1.10;99.90;;;;;;5067246;28;20040;-77
2022/01/06 07:01:21;;;;;;;8.25;2.38;;;1.10;99.90;;;;;;5065647;28;20040;-77
2022/01/06 07:03:47;;;;;;;9.75;2.00;;;1.10;99.90;;;;;;5066231;28;20083;-77
2022/01/06 07:06:13;;;;;;;10.30;2.53;;;1.20;99.90;;;;;;5068634;28;20040;-77
2022/01/06 07:08:39;;;;;;;11.75;3.20;;;1.00;99.90;;;;;;5067527;28;20052;-76
2022/01/06 07:11:04;;;;;;;9.13;2.50;;;1.10;99.90;;;;;;5049475;28;20131;-77
2022/01/06 07:13:30;;;;;;;10.93;2.45;;;1.80;99.90;;;;;;5051703;28;20040;-76
2022/01/06 07:15:57;;;;;;;16.90;3.17;;;1.00;99.90;;;;;;5060383;28;20052;-77
2022/01/06 07:18:23;;;;;;;12.48;2.70;;;1.00;99.90;;;;;;5047519;28;20109;-76
2022/01/06 07:20:48;;;;;;;8.40;2.35;;;1.00;99.90;;;;;;5045952;28;20037;-78
2022/01/06 07:23:14;;;;;;;10.73;2.63;;;1.00;99.90;;;;;;5046357;28;20535;-77
2022/01/06 07:25:40;;;;;;;14.30;3.13;;;1.00;99.90;;;;;;5061221;28;20043;-76
2022/01/06 07:28:06;;;;;;;13.63;2.75;;;1.00;99.90;;;;;;5063259;28;20458;-77
2022/01/06 07:30:33;;;;;;;8.65;2.63;;;2.30;99.90;;;;;;5063121;28;20059;-77
2022/01/06 07:33:00;;;;;;;10.95;2.78;;;1.10;99.90;;;;;;5048264;28;20623;-77
2022/01/06 07:35:27;;;;;;;8.13;2.10;;;1.00;99.90;;;;;;5064613;28;20389;-77
2022/01/06 07:37:52;;;;;;;9.20;2.60;;;1.00;99.90;;;;;;5063397;28;20048;-77
2022/01/06 07:40:20;;;;;;;10.07;2.70;;;1.00;99.90;;;;;;5049181;28;20051;-77
2022/01/06 07:42:47;;;;;;;13.77;2.22;;;2.30;99.90;;;;;;5064347;28;20133;-77
2022/01/06 07:45:12;;;;;;;7.55;2.08;;;1.00;99.90;;;;;;5046018;28;20406;-77
2022/01/06 07:47:54;;;;;;;10.15;2.35;;;2.10;99.90;;;;;;5064668;28;20056;-77
2022/01/06 07:50:23;;;;;;;8.27;2.47;;;1.00;99.90;;;;;;5052021;28;20162;-77
2022/01/06 07:52:49;;;;;;;6.40;2.10;;;0.90;99.90;;;;;;5063686;28;20059;-77
2022/01/06 07:55:15;;;;;;;7.57;2.33;;;0.90;99.90;;;;;;5048567;28;20494;-77
2022/01/06 07:57:40;;;;;;;7.50;2.70;;;2.10;99.90;;;;;;5049866;28;20037;-77
2022/01/06 08:00:07;;;;;;;10.35;2.92;;;0.80;99.90;;;;;;5033011;28;20502;-77
2022/01/06 08:02:32;;;;;;;16.30;3.25;;;0.80;99.90;;;;;;5050416;28;20127;-77
2022/01/06 08:04:58;;;;;;;11.15;2.63;;;0.80;99.90;;;;;;5040910;28;20123;-77
2022/01/06 08:07:24;;;;;;;12.30;2.55;;;0.90;99.90;;;;;;5049679;28;20552;-77
2022/01/06 08:09:49;;;;;;;9.10;2.38;;;1.20;99.90;;;;;;5051571;28;20159;-77
2022/01/06 08:12:15;;;;;;;6.50;2.25;;;1.70;99.90;;;;;;5049723;28;20052;-77
2022/01/06 08:14:41;;;;;;;9.07;2.28;;;0.80;99.90;;;;;;5047927;28;20504;-77
2022/01/06 08:17:07;;;;;;;11.10;3.05;;;0.70;99.90;;;;;;5064403;28;20108;-77
2022/01/06 08:19:32;;;;;;;8.32;2.30;;;1.00;99.90;;;;;;5032873;28;20052;-77
2022/01/06 08:21:58;;;;;;;8.35;2.30;;;1.00;99.90;;;;;;5047952;28;20044;-77
2022/01/06 08:24:24;;;;;;;9.50;2.03;;;1.80;99.90;;;;;;5047727;28;20036;-77
2022/01/06 08:26:49;;;;;;;12.98;2.65;;;1.40;99.90;;;;;;5048722;28;20044;-77
2022/01/06 08:29:15;;;;;;;7.60;2.60;;;0.70;99.90;;;;;;5042529;28;20510;-81
2022/01/06 08:31:41;;;;;;;12.00;3.00;;;0.70;99.90;;;;;;5066595;28;20048;-77
2022/01/06 08:34:06;;;;;;;10.77;2.47;;;0.70;99.90;;;;;;5060045;28;20041;-77
2022/01/06 08:36:32;;;;;;;12.32;2.40;;;0.70;99.90;;;;;;5048934;28;20060;-77
2022/01/06 08:38:58;;;;;;;11.93;2.80;;;0.80;99.90;;;;;;5082318;28;20079;-77
2022/01/06 08:41:24;;;;;;;10.48;2.40;;;0.80;99.90;;;;;;5051470;28;20481;-77
2022/01/06 08:43:49;;;;;;;12.25;2.78;;;1.10;99.90;;;;;;5076116;28;20588;-78
2022/01/06 08:46:15;;;;;;;12.43;3.28;;;1.50;99.90;;;;;;5044327;28;20747;-77
2022/01/06 08:48:41;;;;;;;10.13;2.35;;;0.90;99.90;;;;;;5066774;28;20055;-77
2022/01/06 08:51:07;;;;;;;10.73;2.25;;;2.40;99.90;;;;;;5050439;28;20054;-77
2022/01/06 08:53:32;;;;;;;14.40;3.40;;;1.00;99.90;;;;;;5050689;28;20131;-78
2022/01/06 08:55:58;;;;;;;9.10;2.00;;;1.20;99.90;;;;;;5067454;28;20041;-78
2022/01/06 08:58:24;;;;;;;9.68;2.28;;;2.20;99.90;;;;;;5050452;28;20106;-77
2022/01/06 09:00:49;;;;;;;10.93;2.67;;;1.20;99.90;;;;;;5049914;28;20040;-77
2022/01/06 09:03:15;;;;;;;12.65;2.55;;;1.30;99.90;;;;;;5046106;28;20130;-77
2022/01/06 09:05:41;;;;;;;10.55;2.53;;;1.40;99.90;;;;;;5032918;28;20048;-77
2022/01/06 09:08:07;;;;;;;12.75;3.00;;;1.50;99.90;;;;;;5050138;28;20478;-77
2022/01/06 09:10:34;;;;;;;10.85;2.88;;;1.60;99.90;;;;;;5067064;28;20052;-77
2022/01/06 09:13:04;;;;;;;11.82;2.80;;;3.30;99.90;;;;;;5049202;28;20084;-78
2022/01/06 09:15:30;;;;;;;16.80;2.88;;;2.20;99.90;;;;;;5049939;28;20057;-77
2022/01/06 09:17:56;;;;;;;15.02;3.60;;;3.10;99.90;;;;;;5066981;28;20056;-77
2022/01/06 09:20:22;;;;;;;19.23;4.47;;;3.30;99.90;;;;;;5066000;28;20093;-77
2022/01/06 09:22:48;;;;;;;15.13;3.95;;;2.50;99.90;;;;;;5066394;28;20409;-77
2022/01/06 09:25:15;;;;;;;26.10;3.85;;;3.30;99.90;;;;;;5048713;28;20037;-77
2022/01/06 09:27:41;;;;;;;16.38;3.22;;;4.20;99.90;;;;;;5067006;28;20205;-77
2022/01/06 09:30:08;;;;;;;13.60;3.10;;;3.90;99.90;;;;;;5065983;28;20088;-77
2022/01/06 09:32:34;;;;;;;15.48;2.70;;;3.20;99.90;;;;;;5085216;28;20069;-77
2022/01/06 09:35:00;;;;;;;14.88;2.97;;;3.50;99.90;;;;;;5049096;28;20172;-80
2022/01/06 09:37:26;;;;;;;19.65;3.45;;;4.70;99.90;;;;;;5066297;28;20576;-77
2022/01/06 09:39:53;;;;;;;18.95;3.10;;;4.10;99.90;;;;;;5066892;28;20088;-77
2022/01/06 09:42:20;;;;;;;13.18;3.45;;;5.50;99.90;;;;;;5033054;28;20091;-77
2022/01/06 09:44:50;;;;;;;17.08;3.15;;;4.70;99.90;;;;;;5066323;28;20118;-77
2022/01/06 09:47:16;;;;;;;10.27;2.40;;;5.60;99.90;;;;;;5094035;28;20055;-77
2022/01/06 09:49:44;;;;;;;13.95;2.10;;;5.30;99.90;;;;;;5070330;28;20048;-76
2022/01/06 09:52:11;;;;;;;8.15;1.92;;;5.60;99.90;;;;;;5069407;28;20106;-77
2022/01/06 09:54:38;;;;;;;6.50;1.50;;;4.80;99.90;;;;;;5069606;28;20060;-77
2022/01/06 09:57:04;;;;;;;5.88;1.92;;;4.70;99.90;;;;;;5070275;28;20048;-78
2022/01/06 09:59:30;;;;;;;5.60;1.33;;;4.70;99.90;;;;;;5068647;28;20049;-77
2022/01/06 10:01:56;;;;;;;6.55;1.20;;;4.70;99.90;;;;;;5053382;28;20054;-77
2022/01/06 10:04:33;;;;;;;7.00;1.20;;;4.80;99.90;;;;;;5068369;28;20044;-77
2022/01/06 10:07:00;;;;;;;6.70;1.48;;;4.90;99.90;;;;;;5052942;28;20066;-77
2022/01/06 10:09:25;;;;;;;7.43;1.10;;;5.10;99.90;;;;;;5069320;28;20053;-77
2022/01/06 10:11:56;;;;;;;5.80;1.48;;;4.90;99.90;;;;;;5069953;28;20563;-77
2022/01/06 10:14:30;;;;;;;5.82;1.40;;;4.90;99.90;;;;;;5071560;28;20135;-78
2022/01/06 10:16:57;;;;;;;7.75;1.38;;;5.60;99.90;;;;;;5026377;28;20121;-78
2022/01/06 10:19:23;;;;;;;5.85;1.38;;;6.50;99.90;;;;;;5054679;28;20079;-77
2022/01/06 10:21:57;;;;;;;6.22;1.45;;;6.80;99.90;;;;;;5056714;28;20075;-77
2022/01/06 10:24:27;;;;;;;3.65;1.30;;;7.20;99.90;;;;;;5071618;28;20040;-78
2022/01/06 10:27:07;;;;;;;7.00;1.38;;;7.30;99.90;;;;;;5073476;28;20066;-77
2022/01/06 10:30:06;;;;;;;9.15;1.65;;;7.90;99.90;;;;;;5071344;28;20446;-78
2022/01/06 10:32:32;;;;;;;8.77;1.88;;;8.10;99.90;;;;;;5026811;28;20129;-78
2022/01/06 10:35:03;;;;;;;8.73;2.03;;;8.50;99.90;;;;;;5056269;28;20056;-77
2022/01/06 10:37:35;;;;;;;8.52;1.83;;;9.20;99.90;;;;;;5071447;28;20048;-77
2022/01/06 10:40:07;;;;;;;10.40;2.10;;;9.90;99.90;;;;;;5071399;28;20051;-77
2022/01/06 10:42:37;;;;;;;9.02;2.33;;;10.50;99.90;;;;;;5071213;28;20056;-78
2022/01/06 10:45:17;;;;;;;6.45;2.10;;;10.80;99.90;;;;;;5072068;28;20439;-78
2022/01/06 10:47:46;;;;;;;9.93;1.88;;;10.50;99.90;;;;;;5072085;28;20044;-78
2022/01/06 10:50:17;;;;;;;6.30;1.77;;;10.10;99.90;;;;;;5086730;28;20047;-78
2022/01/06 10:52:48;;;;;;;10.15;1.60;;;10.00;99.90;;;;;;5070183;28;20071;-77
2022/01/06 10:55:28;;;;;;;8.13;1.60;;;10.20;99.90;;;;;;5069917;28;20052;-77
2022/01/06 10:57:55;;;;;;;7.10;1.70;;;10.50;99.90;;;;;;5071212;28;20051;-77
2022/01/06 11:00:23;;;;;;;5.65;1.70;;;10.10;99.90;;;;;;5054834;28;20071;-77
2022/01/06 11:02:49;;;;;;;6.38;1.38;;;9.60;99.90;;;;;;5071089;28;20044;-77
2022/01/06 11:05:15;;;;;;;7.05;1.40;;;9.10;99.90;;;;;;5035217;28;20048;-77
2022/01/06 11:07:41;;;;;;;4.47;1.38;;;8.70;99.90;;;;;;5071708;28;20374;-77
2022/01/06 11:10:16;;;;;;;5.43;1.45;;;8.30;99.90;;;;;;5071042;28;20044;-77
2022/01/06 11:12:42;;;;;;;8.68;1.92;;;8.00;99.90;;;;;;5071596;28;20084;-78
2022/01/06 11:15:09;;;;;;;9.52;1.50;;;7.70;99.90;;;;;;5069733;28;20060;-80
2022/01/06 11:17:35;;;;;;;3.72;1.40;;;7.40;99.90;;;;;;5055586;28;20067;-77
2022/01/06 11:20:01;;;;;;;7.55;1.23;;;7.40;99.90;;;;;;5038238;28;20502;-76
2022/01/06 11:22:27;;;;;;;5.15;1.38;;;7.10;99.90;;;;;;5053595;28;20710;-78
2022/01/06 11:24:59;;;;;;;6.75;1.42;;;6.90;99.90;;;;;;5022183;28;20070;-81
2022/01/06 11:27:40;;;;;;;9.25;1.50;;;6.70;99.90;;;;;;5054018;28;20044;-79
2022/01/06 11:30:14;;;;;;;4.00;1.05;;;6.70;99.90;;;;;;5053927;28;20040;-76
2022/01/06 11:32:42;;;;;;;6.38;1.20;;;6.50;99.90;;;;;;5052280;28;20137;-76
2022/01/06 11:35:19;;;;;;;5.85;1.73;;;6.50;99.90;;;;;;5066897;28;20036;-76
2022/01/06 11:37:48;;;;;;;4.85;1.20;;;6.40;99.90;;;;;;5070716;28;20051;-76
2022/01/06 11:40:16;;;;;;;7.35;1.48;;;6.40;99.90;;;;;;5070015;28;20503;-76
2022/01/06 11:42:56;;;;;;;7.28;1.10;;;6.20;99.90;;;;;;5050218;28;20040;-76
2022/01/06 11:45:22;;;;;;;5.65;1.30;;;6.20;99.90;;;;;;5069760;28;20048;-75
2022/01/06 11:48:09;;;;;;;5.63;1.33;;;6.20;99.90;;;;;;5070576;28;20405;-75
2022/01/06 11:50:38;;;;;;;6.85;1.40;;;6.10;99.90;;;;;;5070578;28;20079;-76
2022/01/06 11:53:04;;;;;;;6.80;1.63;;;6.00;99.90;;;;;;5051056;28;20085;-77
2022/01/06 11:55:41;;;;;;;5.22;1.38;;;6.00;99.90;;;;;;5070378;28;20105;-76
2022/01/06 11:58:18;;;;;;;5.75;1.30;;;5.90;99.90;;;;;;5068865;28;20127;-75
2022/01/06 12:01:02;;;;;;;6.38;1.38;;;5.80;99.90;;;;;;5052576;28;20493;-77
2022/01/06 12:03:40;;;;;;;6.57;1.40;;;5.80;99.90;;;;;;5067387;28;20405;-76
2022/01/06 12:06:07;;;;;;;4.78;1.20;;;6.30;99.90;;;;;;5052721;28;20052;-80
2022/01/06 12:08:40;;;;;;;5.55;1.20;;;5.80;99.90;;;;;;5065611;28;20060;-78
2022/01/06 12:11:19;;;;;;;10.60;1.33;;;5.80;99.90;;;;;;5065289;28;20433;-76
2022/01/06 12:13:46;;;;;;;6.82;1.60;;;5.80;99.90;;;;;;5070188;28;20043;-78
2022/01/06 12:16:12;;;;;;;5.82;1.58;;;5.70;99.90;;;;;;5051357;28;20083;-79
2022/01/06 12:18:38;;;;;;;6.40;1.33;;;5.70;99.90;;;;;;5067685;28;20144;-78
2022/01/06 12:21:03;;;;;;;4.88;1.40;;;6.70;99.90;;;;;;5037167;28;20054;-77
2022/01/06 12:23:29;;;;;;;6.25;1.48;;;5.70;99.90;;;;;;5067748;28;20142;-77
2022/01/06 12:26:00;;;;;;;8.85;1.65;;;5.60;99.90;;;;;;5051857;28;20045;-79
2022/01/06 12:28:28;;;;;;;7.55;1.60;;;5.70;99.90;;;;;;5068874;28;20181;-76
2022/01/06 12:31:02;;;;;;;7.78;1.55;;;5.60;99.90;;;;;;5066989;28;20176;-78
2022/01/06 12:33:31;;;;;;;5.50;1.45;;;5.60;99.90;;;;;;5050529;28;20142;-78
2022/01/06 12:35:57;;;;;;;6.88;1.70;;;6.20;99.90;;;;;;5068075;28;20507;-78
2022/01/06 12:38:32;;;;;;;8.38;1.40;;;5.90;99.90;;;;;;5051136;28;20124;-77
2022/01/06 12:41:01;;;;;;;7.35;1.52;;;6.40;99.90;;;;;;5069546;28;20063;-78
2022/01/06 12:43:30;;;;;;;8.93;1.50;;;5.60;99.90;;;;;;5050245;28;20048;-78
2022/01/06 12:46:11;;;;;;;5.75;1.52;;;5.60;99.90;;;;;;5068267;28;20051;-78
2022/01/06 12:48:46;;;;;;;7.45;1.50;;;5.70;99.90;;;;;;5052846;28;20135;-78
2022/01/06 12:51:17;;;;;;;6.68;1.17;;;5.60;99.90;;;;;;5069966;28;20155;-78
2022/01/06 12:53:45;;;;;;;7.68;1.45;;;6.60;99.90;;;;;;5069731;28;20054;-78
2022/01/06 12:56:31;;;;;;;10.60;1.50;;;5.60;99.90;;;;;;5094787;28;20070;-77
2022/01/06 12:58:59;;;;;;;4.28;1.50;;;5.60;99.90;;;;;;5053208;28;20043;-79
2022/01/06 13:01:27;;;;;;;7.57;1.42;;;5.60;99.90;;;;;;5043551;28;20058;-79
2022/01/06 13:03:54;;;;;;;6.55;1.60;;;5.60;99.90;;;;;;5051911;28;20051;-79
2022/01/06 13:06:21;;;;;;;8.88;1.40;;;5.50;99.90;;;;;;5067606;28;20493;-81
2022/01/06 13:08:50;;;;;;;5.72;1.60;;;5.50;99.90;;;;;;5071201;28;20505;-81